Accueil
METAR-TAF:

METAR-TAF

Aéroports :

Honiara, Guadalcanal, Iles Salomon

Aéroport international de Honiara

latitude: 09-25S, longitude: 160-03E, altitude: 8 m

Observation

Le bulletin a été fait il y a 12 heures et 34 minutes, à 00:00 UTC
Vent calme
Température 29°C
Humidité 79%
Pression 1010 hPa
Visibilité 10 km ou plus
Quelques nuages à une hauteur de 1800 ft
Quelques nuages à une hauteur de 2000 ft, Cumulonimbus.
Nuages épars à une hauteur de 11000 ft

METAR: AGGH 230000Z 00000KT 9999 FEW018 FEW020CB SCT110 29/25 Q1010

Heure: 23:34 (12:34 UTC)

Prévision

Le bulletin a été fait il y a 2 heures et 4 minutes, à 10:30 UTC
Prévision valable du 23 à 12 UTC au 24 à 12 UTC
Vent 3 kt de direction variable
Visibilité: 1010 m
Quelques nuages à une hauteur de 1700 ft

TAF: AGGH 231030Z 2312/2412 VRB03KT 9999 FEW017 T 25 24 23 27 Q 1010 1009 1009 1010

Observations et prévisions météorologiques de plus de 4000 aéroports (messages METAR et TAF).

Les stations disponibles sont représentées par des disques jaunes et rouges sur la carte.

Passer la souris dessus pour voir le nom de la station.

Cliquer dessus pour voir les observations et prévisions météorologiques.

Pour changer de carte: cliquez sur les boutons verts avec une croix noire pour zoomer, sur le bouton vert avec un tiret pour effectuer un zoom arrière, ou sur les flèches vertes pour les cartes adjacentes.


METAR-TAF: